EIKY/KIR METAR and TAF weather

Enter ICAO airport designator
Station Type Date Time Source
EIKY METAR 2019/12/13 19:30 UTC NOAA

EIKY 131930Z 26013KT 9999 -RA FEW011 OVC023 06/05 Q0984


Station Type Date Time Source
EIKY Decoded METAR 2019/12/13 19:30 UTC NOAA

Station name not available
Dec 13, 2019 - 02:30 PM EST / 2019.12.13 1930 UTC
Wind: from the W (260 degrees) at 15 MPH (13 KT):0
Visibility: greater than 7 mile(s):0
Sky conditions: overcast
Weather: light rain
Temperature: 42 F (6 C)
Dew Point: 41 F (5 C)
Relative Humidity: 93%
Pressure (altimeter): 29.06 in. Hg (0984 hPa)
ob: EIKY 131930Z 26013KT 9999 -RA FEW011 OVC023 06/05 Q0984
cycle: 19

Station Type Date Time Source
EIKY TAF UTC NOAA

Error!

Example: see airport list